createdAt,value
2022-07-29T00:00:25.478Z,13.43
2022-07-29T00:02:53.475Z,13.42
2022-07-29T00:05:22.525Z,13.17
2022-07-29T00:07:50.577Z,13.35
2022-07-29T00:10:18.622Z,13.29
2022-07-29T00:12:46.796Z,13.31
2022-07-29T00:15:16.343Z,13.30
2022-07-29T00:17:44.266Z,13.29
2022-07-29T00:20:12.715Z,13.28
2022-07-29T00:22:41.472Z,13.24
2022-07-29T00:25:09.999Z,13.23
2022-07-29T00:27:38.723Z,13.21
2022-07-29T00:30:08.937Z,13.18
2022-07-29T00:32:38.334Z,13.17
2022-07-29T00:35:24.772Z,13.16
2022-07-29T00:37:52.758Z,13.13
2022-07-29T00:40:23.375Z,13.09
2022-07-29T00:42:54.837Z,12.96
2022-07-29T00:45:23.211Z,13.05
2022-07-29T00:47:52.574Z,13.01
2022-07-29T00:50:21.102Z,12.99
2022-07-29T00:52:49.709Z,12.96
2022-07-29T00:55:18.233Z,12.96
2022-07-29T00:57:46.903Z,12.92
2022-07-29T01:00:18.464Z,12.89
2022-07-29T01:02:49.320Z,12.94
2022-07-29T01:05:20.884Z,12.93
2022-07-29T01:07:50.693Z,12.88
2022-07-29T01:10:20.650Z,12.85
2022-07-29T01:12:50.978Z,12.82
2022-07-29T01:15:19.353Z,12.80
2022-07-29T01:17:53.970Z,12.78
2022-07-29T01:20:31.260Z,12.74
2022-07-29T01:23:29.010Z,12.72
2022-07-29T01:26:25.074Z,12.68
2022-07-29T01:29:07.746Z,12.66
2022-07-29T01:31:49.152Z,12.65
2022-07-29T01:34:36.946Z,12.63
2022-07-29T01:37:10.826Z,12.59
2022-07-29T01:39:40.742Z,12.55
2022-07-29T01:42:16.736Z,12.52
2022-07-29T01:44:53.280Z,12.50
2022-07-29T01:47:25.577Z,12.46
2022-07-29T01:49:56.774Z,12.46
2022-07-29T01:52:31.470Z,12.43
2022-07-29T01:55:04.857Z,12.32
2022-07-29T01:57:36.054Z,12.33
2022-07-29T02:00:07.361Z,12.26
2022-07-29T02:02:39.379Z,12.19
2022-07-29T02:05:10.098Z,12.31
2022-07-29T02:07:39.887Z,12.30
2022-07-29T02:10:09.806Z,12.29
2022-07-29T02:12:39.182Z,12.22
2022-07-29T02:15:11.114Z,12.26
2022-07-29T02:17:43.535Z,12.23
2022-07-29T02:20:12.275Z,12.22
2022-07-29T02:22:41.981Z,12.22
2022-07-29T02:25:14.008Z,11.85
2022-07-29T02:27:44.267Z,12.10
2022-07-29T02:30:14.777Z,12.16
2022-07-29T02:32:45.397Z,11.74
2022-07-29T02:35:17.497Z,12.12
2022-07-29T02:38:07.726Z,11.87
2022-07-29T02:40:38.254Z,12.05
2022-07-29T02:43:08.915Z,11.90
2022-07-29T02:45:38.625Z,12.02
2022-07-29T02:48:12.264Z,12.02
2022-07-29T02:50:46.445Z,12.01
2022-07-29T02:53:20.697Z,12.00
2022-07-29T02:55:53.637Z,12.00
2022-07-29T02:58:29.642Z,11.99
2022-07-29T03:01:01.796Z,11.99
2022-07-29T03:03:34.705Z,11.97
2022-07-29T03:06:04.518Z,11.96
2022-07-29T03:08:34.214Z,11.97
2022-07-29T03:11:03.924Z,11.97
2022-07-29T03:13:32.654Z,11.97
2022-07-29T03:16:03.936Z,11.99
2022-07-29T03:18:33.332Z,12.00
2022-07-29T03:21:01.555Z,12.01
2022-07-29T03:23:33.170Z,12.01
2022-07-29T03:26:04.896Z,12.02
2022-07-29T03:28:32.912Z,12.05
2022-07-29T03:31:03.586Z,12.07
2022-07-29T03:33:33.964Z,12.04
2022-07-29T03:36:03.427Z,12.09
2022-07-29T03:38:35.777Z,12.11
2022-07-29T03:41:08.139Z,12.14
2022-07-29T03:43:49.311Z,12.15
2022-07-29T03:46:23.021Z,12.18
2022-07-29T03:48:55.106Z,12.17
2022-07-29T03:51:33.867Z,12.20
2022-07-29T03:54:09.334Z,12.18
2022-07-29T03:56:42.400Z,12.14
2022-07-29T03:59:12.885Z,12.31
2022-07-29T04:01:43.723Z,12.33
2022-07-29T04:04:12.310Z,12.37
2022-07-29T04:06:42.250Z,12.41
2022-07-29T04:09:10.792Z,12.41
2022-07-29T04:12:01.556Z,12.51
2022-07-29T04:14:28.990Z,12.55
2022-07-29T04:16:58.306Z,12.59
2022-07-29T04:19:26.137Z,12.58
2022-07-29T04:21:54.189Z,12.70
2022-07-29T04:24:22.262Z,12.68
2022-07-29T04:26:53.071Z,12.75
2022-07-29T04:29:21.061Z,12.85
2022-07-29T04:31:49.199Z,12.89
2022-07-29T04:34:19.323Z,12.97
2022-07-29T04:36:47.950Z,13.04
2022-07-29T04:39:20.647Z,13.08
2022-07-29T04:41:52.481Z,13.23
2022-07-29T04:44:22.888Z,13.32
2022-07-29T04:46:57.329Z,13.34
2022-07-29T04:49:27.182Z,13.51
2022-07-29T04:51:55.213Z,13.60
2022-07-29T04:54:23.757Z,13.70
2022-07-29T04:56:52.868Z,13.75
2022-07-29T04:59:20.799Z,13.85
2022-07-29T05:01:48.923Z,13.94
2022-07-29T05:04:17.117Z,14.03
2022-07-29T05:06:46.706Z,14.08
2022-07-29T05:09:14.847Z,14.13
2022-07-29T05:11:42.692Z,14.16
2022-07-29T05:14:10.646Z,14.22
2022-07-29T05:16:40.257Z,14.28
2022-07-29T05:19:13.696Z,14.36
2022-07-29T05:21:42.491Z,14.44
2022-07-29T05:24:12.756Z,14.48
2022-07-29T05:26:41.338Z,14.63
2022-07-29T05:29:43.312Z,14.71
2022-07-29T05:31:57.443Z,14.85
2022-07-29T05:34:26.272Z,14.92
2022-07-29T05:36:54.448Z,14.97
2022-07-29T05:39:48.906Z,15.10
2022-07-29T05:42:13.165Z,15.22
2022-07-29T05:44:41.276Z,15.30
2022-07-29T05:47:09.266Z,15.43
2022-07-29T05:49:37.418Z,15.22
2022-07-29T05:52:05.966Z,15.45
2022-07-29T05:54:35.284Z,15.64
2022-07-29T05:57:03.553Z,15.67
2022-07-29T05:59:31.553Z,15.77
2022-07-29T06:01:59.598Z,15.83
2022-07-29T06:04:27.849Z,15.76
2022-07-29T06:06:55.794Z,15.91
2022-07-29T06:09:24.071Z,15.93
2022-07-29T06:11:53.530Z,15.96
2022-07-29T06:14:21.610Z,15.98
2022-07-29T06:16:49.618Z,16.04
2022-07-29T06:19:18.055Z,16.07
2022-07-29T06:21:46.547Z,16.12
2022-07-29T06:24:15.872Z,16.19
2022-07-29T06:26:44.862Z,16.25
2022-07-29T06:29:14.363Z,16.32
2022-07-29T06:31:42.346Z,16.37
2022-07-29T06:34:10.700Z,16.46
2022-07-29T06:36:39.757Z,16.51
2022-07-29T06:39:09.880Z,16.65
2022-07-29T06:41:39.941Z,16.75
2022-07-29T06:44:07.845Z,16.83
2022-07-29T06:46:37.608Z,16.81
2022-07-29T06:49:06.638Z,16.93
2022-07-29T06:51:34.584Z,16.98
2022-07-29T06:54:03.762Z,17.03
2022-07-29T06:56:38.897Z,17.09
2022-07-29T06:59:08.470Z,17.17
2022-07-29T07:01:38.386Z,17.03
2022-07-29T07:04:06.490Z,17.36
2022-07-29T07:06:34.470Z,17.51
2022-07-29T07:09:02.557Z,17.61
2022-07-29T07:11:30.999Z,17.64
2022-07-29T07:14:02.944Z,17.87
2022-07-29T07:16:33.412Z,18.03
2022-07-29T07:19:03.198Z,18.12
2022-07-29T07:21:31.816Z,18.39
2022-07-29T07:24:00.307Z,18.63
2022-07-29T07:26:28.773Z,18.84
2022-07-29T07:28:56.817Z,19.11
2022-07-29T07:31:25.005Z,19.63
2022-07-29T07:33:54.356Z,20.37
2022-07-29T07:36:24.192Z,21.42
2022-07-29T07:38:52.410Z,22.42
2022-07-29T07:41:20.420Z,23.24
2022-07-29T07:43:48.617Z,24.07
2022-07-29T07:46:17.015Z,24.52
2022-07-29T07:48:45.429Z,25.38
2022-07-29T07:51:13.614Z,25.95
2022-07-29T07:53:43.683Z,26.21
2022-07-29T07:56:12.833Z,26.71
2022-07-29T07:58:41.194Z,26.96
2022-07-29T08:01:09.709Z,27.18
2022-07-29T08:03:38.095Z,27.55
2022-07-29T08:06:06.370Z,27.83
2022-07-29T08:08:34.476Z,28.09
2022-07-29T08:11:09.123Z,28.38
2022-07-29T08:13:39.127Z,28.71
2022-07-29T08:16:13.620Z,29.03
2022-07-29T08:18:43.507Z,29.19
2022-07-29T08:21:14.784Z,29.30
2022-07-29T08:23:54.339Z,29.36
2022-07-29T08:26:28.240Z,29.37
2022-07-29T08:28:56.590Z,29.68
2022-07-29T08:31:24.591Z,29.72
2022-07-29T08:33:52.696Z,29.81
2022-07-29T08:36:22.226Z,30.02
2022-07-29T08:38:50.610Z,30.20
2022-07-29T08:41:20.125Z,30.39
2022-07-29T08:43:50.255Z,30.68
2022-07-29T08:46:19.178Z,31.08
2022-07-29T08:48:48.234Z,31.45
2022-07-29T08:51:18.191Z,31.58
2022-07-29T08:53:48.424Z,31.81
2022-07-29T08:56:17.854Z,31.48
2022-07-29T08:58:50.736Z,30.58
2022-07-29T09:01:36.379Z,30.23
2022-07-29T09:04:13.684Z,29.72
2022-07-29T09:06:45.892Z,28.96
2022-07-29T09:09:15.549Z,28.30
2022-07-29T09:11:44.617Z,27.94
2022-07-29T09:14:14.804Z,27.43
2022-07-29T09:16:54.245Z,26.91
2022-07-29T09:19:30.591Z,27.17
2022-07-29T09:21:59.204Z,26.83
2022-07-29T09:24:29.121Z,26.83
2022-07-29T09:26:57.075Z,27.22
2022-07-29T09:29:26.313Z,27.90
2022-07-29T09:31:57.153Z,27.76
2022-07-29T09:34:27.621Z,27.28
2022-07-29T09:36:57.654Z,27.54
2022-07-29T09:39:31.306Z,27.32
2022-07-29T09:42:01.278Z,27.47
2022-07-29T09:44:42.382Z,27.37
2022-07-29T09:47:11.791Z,27.59
2022-07-29T09:49:54.074Z,27.99
2022-07-29T09:52:22.486Z,28.84
2022-07-29T09:54:50.374Z,29.45
2022-07-29T09:57:30.517Z,29.27
2022-07-29T10:00:00.366Z,29.25
2022-07-29T10:02:35.024Z,28.94
2022-07-29T10:05:04.866Z,28.34
2022-07-29T10:07:51.770Z,27.63
2022-07-29T10:10:24.074Z,27.03
2022-07-29T10:12:56.973Z,26.62
2022-07-29T10:15:26.513Z,26.23
2022-07-29T10:17:57.478Z,25.83
2022-07-29T10:20:26.269Z,25.89
2022-07-29T10:22:55.212Z,26.24
2022-07-29T10:25:24.821Z,27.24
2022-07-29T10:27:54.209Z,27.95
2022-07-29T10:30:23.833Z,28.64
2022-07-29T10:33:08.951Z,29.33
2022-07-29T10:35:56.795Z,29.56
2022-07-29T10:38:45.963Z,29.04
2022-07-29T10:41:32.362Z,28.35
2022-07-29T10:44:23.087Z,27.64
2022-07-29T10:46:52.728Z,27.18
2022-07-29T10:49:25.015Z,26.78
2022-07-29T10:51:55.839Z,26.41
2022-07-29T10:54:44.165Z,26.08
2022-07-29T10:57:17.245Z,26.06
2022-07-29T10:59:46.709Z,26.49
2022-07-29T11:02:46.921Z,27.16
2022-07-29T11:05:21.846Z,26.86
2022-07-29T11:08:28.011Z,26.48
2022-07-29T11:11:44.015Z,27.09
2022-07-29T11:14:19.971Z,28.05
2022-07-29T11:17:07.005Z,28.75
2022-07-29T11:19:40.278Z,29.34
2022-07-29T11:22:16.623Z,29.91
2022-07-29T11:24:50.085Z,30.24
2022-07-29T11:27:21.308Z,30.51
2022-07-29T11:29:53.463Z,30.57
2022-07-29T11:32:24.066Z,30.51
2022-07-29T11:38:29.018Z,30.65
2022-07-29T11:41:23.729Z,30.86
2022-07-29T11:43:53.525Z,31.31
2022-07-29T11:46:50.101Z,31.58
2022-07-29T11:49:31.715Z,31.38
2022-07-29T11:52:02.889Z,30.96
2022-07-29T11:54:58.532Z,30.61
2022-07-29T11:57:37.786Z,30.00
2022-07-29T12:00:09.981Z,29.29
2022-07-29T12:02:43.122Z,29.05
2022-07-29T12:05:12.504Z,28.83
2022-07-29T12:07:46.030Z,28.12
2022-07-29T12:10:19.714Z,27.43
2022-07-29T12:12:57.709Z,27.62
2022-07-29T12:15:45.723Z,27.84
2022-07-29T12:18:18.295Z,27.41
2022-07-29T12:20:47.409Z,27.04
2022-07-29T12:23:17.462Z,25.94
2022-07-29T12:25:49.717Z,25.82
2022-07-29T12:28:26.660Z,26.81
2022-07-29T12:30:55.648Z,26.50
2022-07-29T12:33:26.032Z,26.18
2022-07-29T12:36:06.977Z,26.00
2022-07-29T12:38:36.962Z,25.93
2022-07-29T12:41:06.572Z,25.80
2022-07-29T12:43:35.254Z,25.68
2022-07-29T12:46:15.907Z,25.53
2022-07-29T12:48:45.502Z,25.69
2022-07-29T12:51:15.466Z,26.36
2022-07-29T12:53:43.891Z,27.23
2022-07-29T12:56:41.668Z,28.16
2022-07-29T12:59:18.042Z,28.24
2022-07-29T13:01:48.147Z,28.97
2022-07-29T13:04:26.988Z,29.92
2022-07-29T13:07:02.030Z,29.86
2022-07-29T13:09:40.161Z,30.41
2022-07-29T13:12:11.622Z,31.62
2022-07-29T13:14:41.087Z,32.70
2022-07-29T13:17:11.135Z,33.50
2022-07-29T13:19:41.888Z,34.14
2022-07-29T13:22:10.591Z,34.54
2022-07-29T13:24:48.512Z,35.01
2022-07-29T13:27:18.217Z,35.28
2022-07-29T13:29:46.328Z,35.08
2022-07-29T13:32:15.249Z,34.35
2022-07-29T13:34:43.142Z,33.85
2022-07-29T13:37:11.161Z,32.87
2022-07-29T13:39:39.602Z,32.13
2022-07-29T13:42:11.078Z,31.63
2022-07-29T13:44:40.724Z,30.97
2022-07-29T13:47:09.061Z,30.20
2022-07-29T13:49:37.638Z,29.56
2022-07-29T13:52:08.537Z,28.88
2022-07-29T13:54:42.116Z,28.38
2022-07-29T13:57:11.910Z,27.94
2022-07-29T13:59:41.813Z,27.51
2022-07-29T14:02:10.181Z,27.08
2022-07-29T14:04:39.472Z,26.75
2022-07-29T14:07:08.375Z,26.44
2022-07-29T14:09:40.965Z,26.15
2022-07-29T14:12:11.022Z,27.31
2022-07-29T14:14:38.929Z,29.17
2022-07-29T14:17:08.382Z,30.83
2022-07-29T14:19:39.202Z,30.97
2022-07-29T14:22:09.495Z,31.05
2022-07-29T14:24:39.552Z,31.74
2022-07-29T14:27:09.006Z,32.89
2022-07-29T14:29:38.791Z,33.32
2022-07-29T14:32:10.157Z,34.86
2022-07-29T14:34:38.972Z,35.60
2022-07-29T14:37:09.501Z,35.29
2022-07-29T14:39:44.113Z,35.90
2022-07-29T14:42:12.733Z,36.51
2022-07-29T14:44:42.370Z,37.11
2022-07-29T14:47:12.065Z,37.41
2022-07-29T14:49:40.099Z,37.59
2022-07-29T14:52:08.133Z,37.57
2022-07-29T14:54:36.144Z,36.96
2022-07-29T14:57:04.054Z,35.46
2022-07-29T14:59:31.992Z,35.53
2022-07-29T15:02:00.358Z,35.87
2022-07-29T15:04:30.054Z,35.60
2022-07-29T15:06:57.923Z,36.10
2022-07-29T15:09:26.003Z,35.64
2022-07-29T15:11:54.031Z,36.15
2022-07-29T15:14:22.022Z,36.84
2022-07-29T15:16:50.256Z,37.37
2022-07-29T15:19:20.792Z,37.86
2022-07-29T15:21:50.015Z,38.31
2022-07-29T15:24:19.187Z,38.71
2022-07-29T15:26:47.783Z,37.69
2022-07-29T15:29:16.054Z,36.49
2022-07-29T15:31:44.627Z,35.77
2022-07-29T15:34:12.706Z,36.38
2022-07-29T15:36:56.338Z,36.28
2022-07-29T15:39:25.973Z,34.83
2022-07-29T15:41:53.998Z,33.76
2022-07-29T15:44:22.952Z,34.13
2022-07-29T15:47:07.395Z,35.11
2022-07-29T15:49:48.757Z,35.75
2022-07-29T15:52:25.968Z,36.47
2022-07-29T15:54:57.666Z,36.35
2022-07-29T15:57:26.375Z,35.13
2022-07-29T15:59:54.261Z,34.19
2022-07-29T16:02:22.271Z,33.68
2022-07-29T16:04:50.518Z,33.49
2022-07-29T16:07:18.729Z,32.71
2022-07-29T16:09:52.429Z,32.20
2022-07-29T16:12:22.729Z,31.74
2022-07-29T16:14:51.563Z,31.87
2022-07-29T16:17:19.916Z,31.86
2022-07-29T16:19:48.544Z,31.46
2022-07-29T16:22:16.581Z,31.59
2022-07-29T16:24:44.544Z,31.14
2022-07-29T16:27:12.660Z,30.90
2022-07-29T16:29:41.906Z,30.60
2022-07-29T16:32:09.819Z,30.34
2022-07-29T16:34:37.917Z,29.84
2022-07-29T16:37:05.950Z,29.73
2022-07-29T16:39:33.906Z,29.07
2022-07-29T16:42:05.300Z,28.88
2022-07-29T16:44:33.554Z,28.80
2022-07-29T16:47:05.694Z,29.18
2022-07-29T16:49:33.692Z,29.04
2022-07-29T16:52:01.878Z,28.00
2022-07-29T16:54:30.398Z,28.02
2022-07-29T16:57:00.721Z,27.96
2022-07-29T16:59:29.273Z,28.08
2022-07-29T17:01:58.029Z,27.43
2022-07-29T17:04:28.613Z,27.34
2022-07-29T17:06:56.662Z,27.17
2022-07-29T17:09:25.464Z,27.05
2022-07-29T17:11:55.153Z,27.33
2022-07-29T17:14:25.043Z,26.99
2022-07-29T17:17:01.147Z,26.41
2022-07-29T17:19:33.773Z,25.82
2022-07-29T17:22:11.762Z,25.16
2022-07-29T17:24:42.419Z,24.30
2022-07-29T17:27:10.949Z,24.05
2022-07-29T17:29:39.289Z,23.54
2022-07-29T17:32:08.270Z,23.43
2022-07-29T17:34:38.196Z,23.19
2022-07-29T17:37:07.042Z,22.75
2022-07-29T17:39:36.123Z,22.66
2022-07-29T17:42:04.159Z,22.27
2022-07-29T17:44:36.161Z,22.25
2022-07-29T17:47:05.287Z,21.96
2022-07-29T17:49:36.371Z,21.66
2022-07-29T17:52:07.527Z,21.42
2022-07-29T17:54:35.465Z,21.55
2022-07-29T17:57:03.421Z,21.36
2022-07-29T17:59:31.546Z,21.23
2022-07-29T18:01:59.497Z,21.20
2022-07-29T18:04:28.702Z,21.08
2022-07-29T18:06:57.440Z,21.06
2022-07-29T18:09:26.949Z,20.93
2022-07-29T18:11:55.010Z,20.83
2022-07-29T18:14:23.059Z,20.80
2022-07-29T18:16:51.167Z,20.64
2022-07-29T18:19:19.132Z,20.63
2022-07-29T18:21:53.932Z,20.52
2022-07-29T18:24:25.580Z,20.49
2022-07-29T18:26:55.356Z,20.46
2022-07-29T18:29:23.400Z,20.39
2022-07-29T18:31:51.276Z,20.32
2022-07-29T18:34:19.399Z,20.25
2022-07-29T18:36:47.507Z,20.24
2022-07-29T18:39:20.713Z,20.12
2022-07-29T18:41:51.001Z,20.10
2022-07-29T18:44:21.709Z,20.10
2022-07-29T18:46:50.726Z,20.02
2022-07-29T18:49:18.945Z,20.02
2022-07-29T18:51:46.924Z,20.02
2022-07-29T18:54:15.283Z,19.92
2022-07-29T18:56:43.149Z,19.93
2022-07-29T18:59:11.515Z,19.94
2022-07-29T19:01:40.999Z,19.86
2022-07-29T19:04:09.043Z,19.82
2022-07-29T19:06:37.126Z,19.71
2022-07-29T19:09:05.393Z,19.67
2022-07-29T19:11:33.285Z,19.64
2022-07-29T19:14:01.305Z,19.61
2022-07-29T19:16:29.558Z,19.57
2022-07-29T19:19:00.905Z,19.39
2022-07-29T19:21:29.774Z,19.39
2022-07-29T19:24:05.947Z,19.37
2022-07-29T19:26:38.691Z,19.33
2022-07-29T19:29:06.741Z,19.30
2022-07-29T19:31:34.686Z,19.24
2022-07-29T19:34:04.025Z,19.19
2022-07-29T19:36:32.179Z,19.13
2022-07-29T19:39:00.617Z,19.11
2022-07-29T19:41:28.981Z,19.03
2022-07-29T19:43:57.683Z,18.96
2022-07-29T19:46:28.827Z,18.95
2022-07-29T19:48:57.569Z,18.98
2022-07-29T19:51:27.216Z,18.88
2022-07-29T19:53:55.206Z,18.87
2022-07-29T19:56:26.611Z,18.11
2022-07-29T19:58:55.129Z,18.84
2022-07-29T20:01:23.436Z,18.85
2022-07-29T20:03:51.612Z,18.82
2022-07-29T20:06:19.687Z,18.79
2022-07-29T20:08:49.183Z,18.77
2022-07-29T20:11:17.173Z,18.64
2022-07-29T20:13:45.333Z,18.78
2022-07-29T20:16:13.330Z,18.78
2022-07-29T20:18:41.361Z,18.68
2022-07-29T20:21:09.307Z,18.82
2022-07-29T20:23:37.510Z,18.67
2022-07-29T20:26:09.473Z,18.82
2022-07-29T20:28:40.464Z,18.74
2022-07-29T20:31:08.786Z,18.66
2022-07-29T20:33:36.736Z,18.70
2022-07-29T20:36:05.252Z,18.66
2022-07-29T20:38:33.135Z,18.66
2022-07-29T20:41:01.097Z,18.63
2022-07-29T20:43:30.929Z,18.37
2022-07-29T20:46:04.174Z,18.57
2022-07-29T20:48:32.455Z,18.55
2022-07-29T20:51:00.316Z,18.56
2022-07-29T20:53:28.273Z,18.56
2022-07-29T20:55:56.782Z,18.52
2022-07-29T20:58:24.765Z,18.43
2022-07-29T21:00:54.230Z,18.56
2022-07-29T21:03:22.742Z,18.53
2022-07-29T21:05:50.732Z,18.44
2022-07-29T21:08:18.666Z,18.47
2022-07-29T21:10:46.778Z,18.46
2022-07-29T21:13:14.804Z,18.42
2022-07-29T21:15:45.723Z,18.29
2022-07-29T21:18:27.420Z,18.37
2022-07-29T21:20:55.446Z,18.37
2022-07-29T21:23:23.392Z,18.35
2022-07-29T21:25:51.591Z,18.31
2022-07-29T21:28:29.508Z,18.31
2022-07-29T21:30:59.736Z,18.32
2022-07-29T21:33:30.590Z,18.24
2022-07-29T21:36:20.242Z,18.32
2022-07-29T21:38:46.744Z,18.17
2022-07-29T21:41:15.504Z,18.32
2022-07-29T21:43:43.446Z,18.26
2022-07-29T21:46:11.541Z,18.14
2022-07-29T21:48:44.338Z,18.28
2022-07-29T21:51:13.552Z,18.26
2022-07-29T21:53:41.575Z,18.26
2022-07-29T21:56:14.428Z,18.07
2022-07-29T21:58:43.220Z,18.21
2022-07-29T22:01:11.213Z,18.21
2022-07-29T22:03:40.607Z,18.17
2022-07-29T22:06:08.738Z,18.11
2022-07-29T22:08:40.279Z,18.12
2022-07-29T22:11:08.356Z,18.05
2022-07-29T22:13:37.043Z,18.01
2022-07-29T22:16:05.234Z,17.96
2022-07-29T22:18:33.119Z,17.93
2022-07-29T22:21:02.790Z,17.89
2022-07-29T22:23:30.630Z,17.78
2022-07-29T22:25:58.529Z,17.68
2022-07-29T22:28:26.832Z,17.72
2022-07-29T22:30:54.758Z,17.66
2022-07-29T22:33:23.633Z,17.63
2022-07-29T22:35:51.899Z,17.61
2022-07-29T22:38:21.654Z,17.60
2022-07-29T22:40:51.256Z,17.62
2022-07-29T22:43:19.336Z,17.62
2022-07-29T22:45:47.457Z,17.58
2022-07-29T22:48:15.632Z,17.63
2022-07-29T22:50:43.751Z,17.69
2022-07-29T22:53:11.726Z,17.72
2022-07-29T22:55:41.118Z,17.60
2022-07-29T22:58:09.346Z,17.66
2022-07-29T23:00:37.444Z,17.60
2022-07-29T23:03:05.449Z,17.57
2022-07-29T23:05:33.573Z,17.32
2022-07-29T23:08:01.565Z,17.45
2022-07-29T23:10:29.811Z,17.40
2022-07-29T23:12:59.418Z,17.36
2022-07-29T23:15:27.258Z,17.33
2022-07-29T23:17:55.146Z,17.29
2022-07-29T23:20:23.205Z,17.24
2022-07-29T23:22:51.130Z,17.22
2022-07-29T23:25:19.146Z,17.17
2022-07-29T23:27:47.226Z,17.25
2022-07-29T23:30:16.776Z,17.26
2022-07-29T23:32:44.642Z,17.25
2022-07-29T23:35:13.010Z,17.27
2022-07-29T23:37:40.936Z,17.08
2022-07-29T23:40:14.150Z,17.28
2022-07-29T23:42:44.104Z,17.19
2022-07-29T23:45:12.665Z,17.25
2022-07-29T23:47:43.745Z,17.14
2022-07-29T23:50:13.654Z,17.08
2022-07-29T23:52:42.162Z,17.19
2022-07-29T23:55:37.157Z,17.00
2022-07-29T23:58:00.001Z,17.22
